sensor_id;sensor_type;location;lat;lon;timestamp;P1;durP1;ratioP1;P2;durP2;ratioP2
71965;SDS011;59836;52.132;5.442;2022-09-30T16:09:06;6.55;;;3.92;;
71965;SDS011;59836;52.132;5.442;2022-09-30T16:11:46;5.85;;;3.50;;
71965;SDS011;59836;52.132;5.442;2022-09-30T16:14:31;4.30;;;3.60;;
71965;SDS011;59836;52.132;5.442;2022-09-30T16:17:04;5.83;;;3.30;;
71965;SDS011;59836;52.132;5.442;2022-09-30T16:19:40;6.68;;;4.10;;
71965;SDS011;59836;52.132;5.442;2022-09-30T16:25:10;4.35;;;3.65;;
71965;SDS011;59836;52.132;5.442;2022-09-30T16:27:43;5.45;;;3.75;;
71965;SDS011;59836;52.132;5.442;2022-09-30T16:30:20;5.30;;;3.40;;
71965;SDS011;59836;52.132;5.442;2022-09-30T16:32:49;5.13;;;3.67;;
71965;SDS011;59836;52.132;5.442;2022-09-30T16:35:24;6.68;;;5.07;;
71965;SDS011;59836;52.132;5.442;2022-09-30T16:37:59;3.97;;;3.58;;
71965;SDS011;59836;52.132;5.442;2022-09-30T16:45:54;5.18;;;4.38;;
71965;SDS011;59836;52.132;5.442;2022-09-30T16:48:22;6.00;;;4.40;;
71965;SDS011;59836;52.132;5.442;2022-09-30T16:51:10;4.55;;;3.53;;
71965;SDS011;59836;52.132;5.442;2022-09-30T16:53:39;5.80;;;4.13;;
71965;SDS011;59836;52.132;5.442;2022-09-30T17:03:52;4.90;;;4.50;;
71965;SDS011;59836;52.132;5.442;2022-09-30T17:06:26;5.88;;;5.13;;
71965;SDS011;59836;52.132;5.442;2022-09-30T17:14:15;4.45;;;4.05;;
71965;SDS011;59836;52.132;5.442;2022-09-30T17:16:43;6.50;;;4.55;;
71965;SDS011;59836;52.132;5.442;2022-09-30T17:19:13;4.53;;;4.10;;
71965;SDS011;59836;52.132;5.442;2022-09-30T17:25:00;3.67;;;3.37;;
71965;SDS011;59836;52.132;5.442;2022-09-30T17:27:28;5.28;;;3.60;;
71965;SDS011;59836;52.132;5.442;2022-09-30T17:30:01;5.13;;;4.63;;
71965;SDS011;59836;52.132;5.442;2022-09-30T17:32:28;5.65;;;4.53;;
71965;SDS011;59836;52.132;5.442;2022-09-30T17:35:12;5.28;;;4.22;;
71965;SDS011;59836;52.132;5.442;2022-09-30T17:37:40;5.10;;;4.57;;
71965;SDS011;59836;52.132;5.442;2022-09-30T17:43:23;7.38;;;4.95;;
71965;SDS011;59836;52.132;5.442;2022-09-30T17:45:51;5.72;;;5.03;;
71965;SDS011;59836;52.132;5.442;2022-09-30T17:48:21;7.43;;;5.10;;
71965;SDS011;59836;52.132;5.442;2022-09-30T17:50:51;5.37;;;4.87;;
71965;SDS011;59836;52.132;5.442;2022-09-30T17:53:20;7.68;;;5.05;;
71965;SDS011;59836;52.132;5.442;2022-09-30T17:55:48;5.78;;;5.22;;
71965;SDS011;59836;52.132;5.442;2022-09-30T17:58:31;6.72;;;4.78;;
71965;SDS011;59836;52.132;5.442;2022-09-30T18:03:42;6.07;;;4.97;;
71965;SDS011;59836;52.132;5.442;2022-09-30T18:06:14;4.90;;;4.22;;
71965;SDS011;59836;52.132;5.442;2022-09-30T18:08:53;8.00;;;5.00;;
71965;SDS011;59836;52.132;5.442;2022-09-30T18:11:32;5.82;;;4.80;;
71965;SDS011;59836;52.132;5.442;2022-09-30T18:14:12;5.43;;;4.65;;
71965;SDS011;59836;52.132;5.442;2022-09-30T18:16:41;5.37;;;4.30;;
71965;SDS011;59836;52.132;5.442;2022-09-30T18:19:11;5.30;;;4.53;;
71965;SDS011;59836;52.132;5.442;2022-09-30T18:21:42;5.43;;;4.80;;
71965;SDS011;59836;52.132;5.442;2022-09-30T18:24:17;7.72;;;5.03;;
71965;SDS011;59836;52.132;5.442;2022-09-30T18:29:47;5.33;;;4.53;;
71965;SDS011;59836;52.132;5.442;2022-09-30T18:32:14;6.03;;;4.78;;
71965;SDS011;59836;52.132;5.442;2022-09-30T18:34:42;7.00;;;5.18;;
71965;SDS011;59836;52.132;5.442;2022-09-30T18:37:09;7.13;;;4.63;;
71965;SDS011;59836;52.132;5.442;2022-09-30T18:39:36;6.32;;;4.57;;
71965;SDS011;59836;52.132;5.442;2022-09-30T18:42:03;6.87;;;4.80;;
71965;SDS011;59836;52.132;5.442;2022-09-30T18:44:30;5.70;;;4.50;;
71965;SDS011;59836;52.132;5.442;2022-09-30T18:46:58;5.95;;;4.65;;
71965;SDS011;59836;52.132;5.442;2022-09-30T18:49:24;5.88;;;4.78;;
71965;SDS011;59836;52.132;5.442;2022-09-30T18:51:53;5.72;;;5.10;;
71965;SDS011;59836;52.132;5.442;2022-09-30T18:54:19;7.47;;;4.80;;
71965;SDS011;59836;52.132;5.442;2022-09-30T18:56:45;8.77;;;5.10;;
71965;SDS011;59836;52.132;5.442;2022-09-30T18:59:12;6.85;;;5.35;;
71965;SDS011;59836;52.132;5.442;2022-09-30T19:01:46;7.60;;;4.85;;
71965;SDS011;59836;52.132;5.442;2022-09-30T19:04:13;6.60;;;4.82;;
71965;SDS011;59836;52.132;5.442;2022-09-30T19:06:43;6.33;;;4.10;;
71965;SDS011;59836;52.132;5.442;2022-09-30T19:09:15;7.82;;;4.30;;
71965;SDS011;59836;52.132;5.442;2022-09-30T19:11:43;5.32;;;4.38;;
71965;SDS011;59836;52.132;5.442;2022-09-30T19:14:11;5.53;;;4.20;;
71965;SDS011;59836;52.132;5.442;2022-09-30T19:16:38;5.90;;;4.18;;
71965;SDS011;59836;52.132;5.442;2022-09-30T19:19:06;6.70;;;4.67;;
71965;SDS011;59836;52.132;5.442;2022-09-30T19:21:36;6.80;;;4.22;;
71965;SDS011;59836;52.132;5.442;2022-09-30T19:24:03;6.20;;;4.45;;
71965;SDS011;59836;52.132;5.442;2022-09-30T19:26:32;5.68;;;4.35;;
71965;SDS011;59836;52.132;5.442;2022-09-30T19:29:02;4.63;;;4.22;;
71965;SDS011;59836;52.132;5.442;2022-09-30T19:31:34;5.77;;;3.50;;
71965;SDS011;59836;52.132;5.442;2022-09-30T19:34:03;4.93;;;3.72;;
71965;SDS011;59836;52.132;5.442;2022-09-30T19:36:30;4.25;;;3.60;;
71965;SDS011;59836;52.132;5.442;2022-09-30T19:39:12;7.00;;;4.25;;
71965;SDS011;59836;52.132;5.442;2022-09-30T19:41:38;6.75;;;4.38;;
71965;SDS011;59836;52.132;5.442;2022-09-30T19:44:05;7.07;;;3.93;;
71965;SDS011;59836;52.132;5.442;2022-09-30T19:46:31;5.10;;;3.70;;
71965;SDS011;59836;52.132;5.442;2022-09-30T19:48:59;5.55;;;4.35;;
71965;SDS011;59836;52.132;5.442;2022-09-30T19:51:25;6.75;;;3.92;;
71965;SDS011;59836;52.132;5.442;2022-09-30T19:54:06;6.22;;;3.75;;
71965;SDS011;59836;52.132;5.442;2022-09-30T19:59:52;6.00;;;3.80;;
71965;SDS011;59836;52.132;5.442;2022-09-30T20:05:16;5.40;;;3.58;;
71965;SDS011;59836;52.132;5.442;2022-09-30T20:07:43;4.28;;;3.60;;
71965;SDS011;59836;52.132;5.442;2022-09-30T20:10:16;4.53;;;3.73;;
71965;SDS011;59836;52.132;5.442;2022-09-30T20:12:51;5.80;;;3.63;;
71965;SDS011;59836;52.132;5.442;2022-09-30T20:15:21;4.43;;;4.03;;
71965;SDS011;59836;52.132;5.442;2022-09-30T20:21:15;6.07;;;4.25;;
71965;SDS011;59836;52.132;5.442;2022-09-30T20:23:45;5.73;;;3.73;;
71965;SDS011;59836;52.132;5.442;2022-09-30T20:26:14;4.47;;;3.40;;
71965;SDS011;59836;52.132;5.442;2022-09-30T20:28:47;4.25;;;3.85;;
71965;SDS011;59836;52.132;5.442;2022-09-30T20:31:22;5.47;;;3.45;;
71965;SDS011;59836;52.132;5.442;2022-09-30T20:33:55;6.63;;;3.80;;
71965;SDS011;59836;52.132;5.442;2022-09-30T20:39:12;4.60;;;2.55;;
71965;SDS011;59836;52.132;5.442;2022-09-30T20:41:53;4.93;;;3.80;;
71965;SDS011;59836;52.132;5.442;2022-09-30T20:47:16;4.05;;;3.13;;
71965;SDS011;59836;52.132;5.442;2022-09-30T20:52:19;3.72;;;2.55;;
71965;SDS011;59836;52.132;5.442;2022-09-30T20:54:52;7.63;;;3.30;;
71965;SDS011;59836;52.132;5.442;2022-09-30T20:57:28;4.85;;;3.58;;
71965;SDS011;59836;52.132;5.442;2022-09-30T20:59:59;5.20;;;3.17;;
71965;SDS011;59836;52.132;5.442;2022-09-30T21:02:34;5.30;;;3.60;;
71965;SDS011;59836;52.132;5.442;2022-09-30T21:05:05;4.35;;;2.97;;
71965;SDS011;59836;52.132;5.442;2022-09-30T21:07:46;6.60;;;3.10;;
71965;SDS011;59836;52.132;5.442;2022-09-30T21:10:21;3.40;;;3.03;;
71965;SDS011;59836;52.132;5.442;2022-09-30T21:13:05;3.80;;;2.90;;
71965;SDS011;59836;52.132;5.442;2022-09-30T21:15:44;4.73;;;3.20;;
71965;SDS011;59836;52.132;5.442;2022-09-30T21:23:46;7.53;;;4.07;;
71965;SDS011;59836;52.132;5.442;2022-09-30T21:26:16;5.18;;;3.50;;
71965;SDS011;59836;52.132;5.442;2022-09-30T21:28:50;5.17;;;3.47;;
71965;SDS011;59836;52.132;5.442;2022-09-30T21:31:22;4.97;;;3.63;;
71965;SDS011;59836;52.132;5.442;2022-09-30T21:36:59;6.32;;;3.60;;
71965;SDS011;59836;52.132;5.442;2022-09-30T21:42:15;3.90;;;3.40;;
71965;SDS011;59836;52.132;5.442;2022-09-30T21:52:55;14.88;;;4.18;;
71965;SDS011;59836;52.132;5.442;2022-09-30T21:55:23;4.57;;;3.63;;
71965;SDS011;59836;52.132;5.442;2022-09-30T21:57:51;5.32;;;4.10;;
71965;SDS011;59836;52.132;5.442;2022-09-30T22:00:20;5.35;;;4.32;;
71965;SDS011;59836;52.132;5.442;2022-09-30T22:05:39;4.65;;;3.95;;
71965;SDS011;59836;52.132;5.442;2022-09-30T22:10:41;4.70;;;4.20;;
71965;SDS011;59836;52.132;5.442;2022-09-30T22:13:10;6.00;;;4.38;;
71965;SDS011;59836;52.132;5.442;2022-09-30T22:15:43;4.95;;;4.32;;
71965;SDS011;59836;52.132;5.442;2022-09-30T22:18:21;5.72;;;5.13;;
71965;SDS011;59836;52.132;5.442;2022-09-30T22:20:54;7.27;;;4.60;;
71965;SDS011;59836;52.132;5.442;2022-09-30T22:29:05;9.07;;;4.18;;
71965;SDS011;59836;52.132;5.442;2022-09-30T22:31:44;6.35;;;5.10;;
71965;SDS011;59836;52.132;5.442;2022-09-30T22:34:18;8.07;;;4.40;;
71965;SDS011;59836;52.132;5.442;2022-09-30T22:37:10;7.07;;;4.65;;
71965;SDS011;59836;52.132;5.442;2022-09-30T22:40:12;8.25;;;5.15;;
71965;SDS011;59836;52.132;5.442;2022-09-30T22:42:54;7.43;;;4.45;;
71965;SDS011;59836;52.132;5.442;2022-09-30T22:45:26;7.18;;;4.78;;
71965;SDS011;59836;52.132;5.442;2022-09-30T22:48:11;5.83;;;4.10;;
71965;SDS011;59836;52.132;5.442;2022-09-30T22:56:30;5.47;;;4.90;;
71965;SDS011;59836;52.132;5.442;2022-09-30T22:59:06;5.57;;;4.72;;
71965;SDS011;59836;52.132;5.442;2022-09-30T23:05:20;6.85;;;4.32;;
71965;SDS011;59836;52.132;5.442;2022-09-30T23:07:48;6.55;;;4.80;;
71965;SDS011;59836;52.132;5.442;2022-09-30T23:10:27;5.70;;;5.10;;
71965;SDS011;59836;52.132;5.442;2022-09-30T23:13:06;8.07;;;4.88;;
71965;SDS011;59836;52.132;5.442;2022-09-30T23:15:36;7.17;;;4.60;;
71965;SDS011;59836;52.132;5.442;2022-09-30T23:18:08;5.78;;;4.43;;
71965;SDS011;59836;52.132;5.442;2022-09-30T23:23:34;6.78;;;4.53;;
71965;SDS011;59836;52.132;5.442;2022-09-30T23:26:15;6.15;;;5.10;;
71965;SDS011;59836;52.132;5.442;2022-09-30T23:31:47;6.50;;;4.53;;
71965;SDS011;59836;52.132;5.442;2022-09-30T23:34:19;8.15;;;5.00;;
71965;SDS011;59836;52.132;5.442;2022-09-30T23:36:50;5.40;;;4.43;;
71965;SDS011;59836;52.132;5.442;2022-09-30T23:45:26;9.07;;;4.82;;
71965;SDS011;59836;52.132;5.442;2022-09-30T23:48:00;5.30;;;4.68;;
71965;SDS011;59836;52.132;5.442;2022-09-30T23:53:31;6.57;;;5.20;;
71965;SDS011;59836;52.132;5.442;2022-09-30T23:58:33;5.07;;;4.57;;
